createdAt,value
2019-02-17T00:01:03.259Z,102359.67
2019-02-17T00:06:07.131Z,102353.42
2019-02-17T00:11:10.971Z,102347.17
2019-02-17T00:16:14.939Z,102343.52
2019-02-17T00:21:18.736Z,102332.95
2019-02-17T00:26:22.642Z,102335.82
2019-02-17T00:31:26.588Z,102329.61
2019-02-17T00:36:30.561Z,102327.32
2019-02-17T00:41:34.386Z,102326.34
2019-02-17T00:46:38.419Z,102328.42
2019-02-17T00:51:43.721Z,102330.52
2019-02-17T00:56:47.760Z,102330.75
2019-02-17T01:01:51.737Z,102323.62
2019-02-17T01:06:55.533Z,102316.95
2019-02-17T01:11:59.311Z,102315.02
2019-02-17T01:17:03.161Z,102312.76
2019-02-17T01:22:07.059Z,102316.92
2019-02-17T01:27:10.904Z,102315.38
2019-02-17T01:32:14.710Z,102318.55
2019-02-17T01:37:18.601Z,102316.48
2019-02-17T01:42:22.472Z,102315.45
2019-02-17T01:47:26.291Z,102308.78
2019-02-17T01:52:30.305Z,102299.98
2019-02-17T01:57:34.101Z,102295.00
2019-02-17T02:02:37.983Z,102288.80
2019-02-17T02:07:41.885Z,102286.49
2019-02-17T02:12:45.795Z,102287.67
2019-02-17T02:17:49.627Z,102284.89
2019-02-17T02:22:53.439Z,102284.18
2019-02-17T02:27:57.363Z,102283.89
2019-02-17T02:33:01.266Z,102281.45
2019-02-17T02:38:07.145Z,102264.55
2019-02-17T02:43:10.945Z,102265.79
2019-02-17T02:48:14.827Z,102265.66
2019-02-17T02:53:18.787Z,102256.50
2019-02-17T02:58:22.592Z,102245.50
2019-02-17T03:03:26.385Z,102242.66
2019-02-17T03:08:30.203Z,102239.80
2019-02-17T03:13:34.179Z,102233.83
2019-02-17T03:18:38.010Z,102226.72
2019-02-17T03:23:41.978Z,102220.56
2019-02-17T03:28:45.796Z,102218.24
2019-02-17T03:33:49.673Z,102218.41
2019-02-17T03:38:53.479Z,102222.77
2019-02-17T03:43:57.438Z,102212.85
2019-02-17T03:49:01.312Z,102208.48
2019-02-17T03:54:05.887Z,102207.55
2019-02-17T03:59:09.819Z,102211.38
2019-02-17T04:04:13.734Z,102202.21
2019-02-17T04:09:17.518Z,102203.30
2019-02-17T04:14:21.546Z,102194.16
2019-02-17T04:19:25.342Z,102183.02
2019-02-17T04:24:29.250Z,102183.16
2019-02-17T04:29:33.206Z,102193.42
2019-02-17T04:34:37.009Z,102189.23
2019-02-17T04:39:40.799Z,102183.16
2019-02-17T04:44:45.038Z,102175.26
2019-02-17T04:49:48.842Z,102185.02
2019-02-17T04:54:52.662Z,102177.16
2019-02-17T04:59:56.546Z,102170.93
2019-02-17T05:05:00.434Z,102169.98
2019-02-17T05:10:04.290Z,102163.77
2019-02-17T05:15:08.521Z,102163.62
2019-02-17T05:20:12.372Z,102157.91
2019-02-17T05:25:16.171Z,102155.25
2019-02-17T05:30:20.027Z,102156.40
2019-02-17T05:35:24.069Z,102157.27
2019-02-17T05:40:27.884Z,102151.38
2019-02-17T05:45:31.702Z,102144.42
2019-02-17T05:50:35.519Z,102142.18
2019-02-17T05:55:39.440Z,102138.20
2019-02-17T06:00:43.495Z,102129.89
2019-02-17T06:05:47.311Z,102128.56
2019-02-17T06:10:51.110Z,102126.38
2019-02-17T06:15:54.945Z,102133.21
2019-02-17T06:20:59.171Z,102136.47
2019-02-17T06:26:03.297Z,102129.43
2019-02-17T06:31:14.072Z,102130.12
2019-02-17T06:36:12.651Z,102127.31
2019-02-17T06:41:16.700Z,102124.22
2019-02-17T06:46:24.739Z,102121.47
2019-02-17T06:51:28.777Z,102121.06
2019-02-17T06:56:46.131Z,102125.17
2019-02-17T07:01:50.109Z,102126.84
2019-02-17T07:07:01.489Z,102131.80
2019-02-17T07:12:05.374Z,102134.67
2019-02-17T07:17:09.329Z,102134.45
2019-02-17T07:22:13.239Z,102131.42
2019-02-17T07:27:17.128Z,102129.69
2019-02-17T07:32:20.969Z,102130.35
2019-02-17T07:37:33.150Z,102130.86
2019-02-17T07:42:30.483Z,102124.25
2019-02-17T07:47:34.449Z,102126.53
2019-02-17T07:52:38.324Z,102125.39
2019-02-17T07:57:42.139Z,102115.20
2019-02-17T08:02:46.025Z,102117.87
2019-02-17T08:07:49.909Z,102113.98
2019-02-17T08:12:53.975Z,102109.30
2019-02-17T08:17:57.992Z,102107.99
2019-02-17T08:23:01.976Z,102108.94
2019-02-17T08:28:05.798Z,102104.28
2019-02-17T08:33:09.890Z,102098.73
2019-02-17T08:38:13.913Z,102096.20
2019-02-17T08:43:18.088Z,102098.67
2019-02-17T08:48:22.578Z,102093.30
2019-02-17T08:53:26.448Z,102093.38
2019-02-17T08:58:30.426Z,102082.84
2019-02-17T09:03:34.491Z,102083.19
2019-02-17T09:08:38.658Z,102077.96
2019-02-17T09:13:42.627Z,102070.45
2019-02-17T09:18:49.228Z,102069.48
2019-02-17T09:23:53.393Z,102064.07
2019-02-17T09:28:57.320Z,102064.86
2019-02-17T09:34:01.309Z,102068.19
2019-02-17T09:39:08.284Z,102074.14
2019-02-17T09:44:12.212Z,102073.58
2019-02-17T09:49:16.103Z,102064.53
2019-02-17T09:54:20.248Z,102056.23
2019-02-17T09:59:24.488Z,102063.36
2019-02-17T10:04:28.359Z,102058.68
2019-02-17T10:09:32.264Z,102053.94
2019-02-17T10:14:36.153Z,102046.10
2019-02-17T10:19:40.211Z,102049.63
2019-02-17T10:24:44.100Z,102037.05
2019-02-17T10:29:47.985Z,102039.97
2019-02-17T10:34:51.855Z,102041.45
2019-02-17T10:39:55.922Z,102029.87
2019-02-17T10:44:59.726Z,102032.78
2019-02-17T10:50:03.761Z,102022.27
2019-02-17T10:55:07.780Z,102014.69
2019-02-17T11:00:13.737Z,102013.86
2019-02-17T11:05:17.567Z,102011.78
2019-02-17T11:10:21.410Z,101999.16
2019-02-17T11:15:25.386Z,101990.44
2019-02-17T11:20:29.222Z,101985.20
2019-02-17T11:25:33.120Z,101974.64
2019-02-17T11:30:37.024Z,101974.25
2019-02-17T11:35:40.924Z,101968.55
2019-02-17T11:40:44.869Z,101960.62
2019-02-17T11:45:49.285Z,101952.67
2019-02-17T11:50:53.270Z,101938.94
2019-02-17T11:55:57.377Z,101931.55
2019-02-17T12:01:01.298Z,101924.17
2019-02-17T12:06:05.209Z,101921.02
2019-02-17T12:11:09.179Z,101907.63
2019-02-17T12:16:13.051Z,101901.05
2019-02-17T12:21:38.808Z,101899.69
2019-02-17T12:26:49.787Z,101897.80
2019-02-17T12:31:53.860Z,101894.91
2019-02-17T12:36:57.879Z,101895.77
2019-02-17T12:42:01.804Z,101889.48
2019-02-17T12:47:05.775Z,101892.13
2019-02-17T12:52:09.632Z,101879.16
2019-02-17T12:57:13.617Z,101870.09
2019-02-17T13:02:17.529Z,101860.82
2019-02-17T13:07:21.551Z,101861.36
2019-02-17T13:12:25.564Z,101858.50
2019-02-17T13:17:29.569Z,101865.61
2019-02-17T13:22:33.532Z,101856.38
2019-02-17T13:27:37.833Z,101839.41
2019-02-17T13:32:41.881Z,101837.95
2019-02-17T13:37:45.704Z,101832.44
2019-02-17T13:42:49.645Z,101831.12
2019-02-17T13:47:53.535Z,101832.61
2019-02-17T13:52:57.427Z,101825.66
2019-02-17T13:58:01.286Z,101817.59
2019-02-17T14:03:05.107Z,101820.95
2019-02-17T14:08:08.997Z,101820.51
2019-02-17T14:13:12.987Z,101806.44
2019-02-17T14:18:16.790Z,101806.16
2019-02-17T14:23:23.934Z,101801.21
2019-02-17T14:28:27.849Z,101798.23
2019-02-17T14:33:31.684Z,101787.80
2019-02-17T14:38:35.718Z,101786.84
2019-02-17T14:43:39.670Z,101796.09
2019-02-17T14:48:43.563Z,101800.69
2019-02-17T14:53:47.591Z,101795.17
2019-02-17T14:58:51.491Z,101789.06
2019-02-17T15:03:55.347Z,101783.50
2019-02-17T15:08:59.431Z,101770.69
2019-02-17T15:14:03.457Z,101752.09
2019-02-17T15:19:07.569Z,101752.09
2019-02-17T15:24:11.456Z,101742.97
2019-02-17T15:29:15.371Z,101739.11
2019-02-17T15:34:19.195Z,101733.26
2019-02-17T15:39:23.019Z,101732.05
2019-02-17T15:44:27.019Z,101733.45
2019-02-17T15:49:31.013Z,101735.52
2019-02-17T15:54:34.999Z,101736.72
2019-02-17T15:59:39.420Z,101734.02
2019-02-17T16:04:45.045Z,101731.70
2019-02-17T16:09:52.071Z,101746.34
2019-02-17T16:14:56.425Z,101744.75
2019-02-17T16:20:00.305Z,101749.09
2019-02-17T16:25:04.581Z,101749.94
2019-02-17T16:30:11.389Z,101749.05
2019-02-17T16:35:15.316Z,101728.03
2019-02-17T16:40:19.175Z,101742.05
2019-02-17T16:45:23.350Z,101740.26
2019-02-17T16:50:27.223Z,101745.30
2019-02-17T16:55:31.305Z,101745.30
2019-02-17T17:00:35.159Z,101747.63
2019-02-17T17:05:39.118Z,101759.70
2019-02-17T17:10:43.098Z,101760.21
2019-02-17T17:15:47.117Z,101766.58
2019-02-17T17:20:51.012Z,101764.55
2019-02-17T17:25:54.905Z,101772.97
2019-02-17T17:30:59.722Z,101773.14
2019-02-17T17:36:03.563Z,101777.97
2019-02-17T17:41:07.459Z,101770.23
2019-02-17T17:46:11.452Z,101776.10
2019-02-17T17:51:15.363Z,101774.84
2019-02-17T17:56:19.233Z,101775.56
2019-02-17T18:01:23.121Z,101790.19
2019-02-17T18:06:27.136Z,101782.23
2019-02-17T18:11:31.049Z,101788.11
2019-02-17T18:16:34.861Z,101787.84
2019-02-17T18:21:38.770Z,101782.28
2019-02-17T18:26:42.657Z,101788.44
2019-02-17T18:31:46.626Z,101795.45
2019-02-17T18:36:50.534Z,101803.82
2019-02-17T18:41:54.432Z,101800.21
2019-02-17T18:46:58.242Z,101809.44
2019-02-17T18:52:02.036Z,101811.23
2019-02-17T18:57:08.198Z,101807.68
2019-02-17T19:02:11.468Z,101804.22
2019-02-17T19:07:15.276Z,101805.22
2019-02-17T19:12:19.185Z,101807.47
2019-02-17T19:17:23.162Z,101804.08
2019-02-17T19:22:27.059Z,101810.72
2019-02-17T19:27:30.885Z,101812.97
2019-02-17T19:32:34.853Z,101813.47
2019-02-17T19:37:38.825Z,101811.33
2019-02-17T19:42:42.770Z,101811.38
2019-02-17T19:47:46.673Z,101814.02
2019-02-17T19:52:50.464Z,101815.81
2019-02-17T19:57:54.313Z,101820.63
2019-02-17T20:03:25.968Z,101821.08
2019-02-17T20:08:29.768Z,101821.55
2019-02-17T20:13:33.849Z,101818.94
2019-02-17T20:18:37.679Z,101817.18
2019-02-17T20:23:41.537Z,101827.23
2019-02-17T20:28:45.433Z,101830.31
2019-02-17T20:33:49.433Z,101833.76
2019-02-17T20:38:53.295Z,101833.31
2019-02-17T20:43:57.634Z,101833.30
2019-02-17T20:49:01.564Z,101835.00
2019-02-17T20:54:05.461Z,101840.19
2019-02-17T20:59:09.347Z,101836.25
2019-02-17T21:04:13.251Z,101830.97
2019-02-17T21:09:17.333Z,101839.69
2019-02-17T21:14:21.259Z,101839.22
2019-02-17T21:19:25.328Z,101843.11
2019-02-17T21:24:29.203Z,101836.09
2019-02-17T21:29:33.256Z,101838.26
2019-02-17T21:34:37.388Z,101845.23
2019-02-17T21:39:41.277Z,101834.74
2019-02-17T21:44:45.179Z,101836.43
2019-02-17T21:49:49.012Z,101843.42
2019-02-17T21:54:53.219Z,101843.85
2019-02-17T21:59:57.137Z,101845.97
2019-02-17T22:05:02.419Z,101851.18
2019-02-17T22:10:07.178Z,101852.92
2019-02-17T22:15:12.830Z,101856.84
2019-02-17T22:20:16.877Z,101844.58
2019-02-17T22:25:20.939Z,101838.84
2019-02-17T22:30:24.934Z,101829.69
2019-02-17T22:35:28.958Z,101829.27
2019-02-17T22:40:32.835Z,101824.86
2019-02-17T22:45:36.743Z,101823.92
2019-02-17T22:50:40.561Z,101826.00
2019-02-17T22:55:45.957Z,101831.13
2019-02-17T23:00:59.574Z,101831.42
2019-02-17T23:06:03.733Z,101837.88
2019-02-17T23:11:07.604Z,101838.64
2019-02-17T23:16:11.527Z,101842.91
2019-02-17T23:21:15.349Z,101839.73
2019-02-17T23:26:20.537Z,101846.59
2019-02-17T23:31:24.592Z,101845.12
2019-02-17T23:36:28.417Z,101841.56
2019-02-17T23:41:32.863Z,101839.76
2019-02-17T23:46:36.668Z,101846.63
2019-02-17T23:51:40.549Z,101846.52
2019-02-17T23:56:44.385Z,101855.18
